createdAt,value
2019-03-08T00:01:48.882Z,9.77
2019-03-08T00:04:15.173Z,7.77
2019-03-08T00:06:41.339Z,8.00
2019-03-08T00:09:09.014Z,8.70
2019-03-08T00:11:35.491Z,9.83
2019-03-08T00:14:01.752Z,9.07
2019-03-08T00:16:28.110Z,17.57
2019-03-08T00:18:54.415Z,8.90
2019-03-08T00:21:20.571Z,7.77
2019-03-08T00:23:46.732Z,10.70
2019-03-08T00:26:12.925Z,7.17
2019-03-08T00:28:39.088Z,7.53
2019-03-08T00:31:05.251Z,7.47
2019-03-08T00:33:31.427Z,8.17
2019-03-08T00:35:57.695Z,7.83
2019-03-08T00:38:25.156Z,9.73
2019-03-08T00:40:51.356Z,8.77
2019-03-08T00:43:17.522Z,8.27
2019-03-08T00:45:43.787Z,9.50
2019-03-08T00:48:09.972Z,8.10
2019-03-08T00:50:36.507Z,8.27
2019-03-08T00:53:02.980Z,8.13
2019-03-08T00:55:29.170Z,7.40
2019-03-08T00:57:55.540Z,10.57
2019-03-08T01:00:21.691Z,9.03
2019-03-08T01:02:47.885Z,10.77
2019-03-08T01:05:16.063Z,11.90
2019-03-08T01:07:42.215Z,8.00
2019-03-08T01:10:11.607Z,8.43
2019-03-08T01:12:37.773Z,8.03
2019-03-08T01:15:15.579Z,8.20
2019-03-08T01:17:41.741Z,6.30
2019-03-08T01:20:10.628Z,11.43
2019-03-08T01:22:36.821Z,6.90
2019-03-08T01:25:05.278Z,8.63
2019-03-08T01:27:31.440Z,10.33
2019-03-08T01:29:57.736Z,5.90
2019-03-08T01:32:24.005Z,7.87
2019-03-08T01:34:50.266Z,7.67
2019-03-08T01:37:16.448Z,6.33
2019-03-08T01:39:42.714Z,7.67
2019-03-08T01:42:08.979Z,7.50
2019-03-08T01:44:35.172Z,9.40
2019-03-08T01:47:01.534Z,8.40
2019-03-08T01:49:27.704Z,9.87
2019-03-08T01:51:53.887Z,7.50
2019-03-08T01:54:20.053Z,7.60
2019-03-08T01:56:46.326Z,6.40
2019-03-08T01:59:12.518Z,5.57
2019-03-08T02:01:38.670Z,7.10
2019-03-08T02:04:05.141Z,7.03
2019-03-08T02:06:31.331Z,7.67
2019-03-08T02:08:57.482Z,7.40
2019-03-08T02:11:23.642Z,10.37
2019-03-08T02:13:49.938Z,8.70
2019-03-08T02:16:16.094Z,9.73
2019-03-08T02:18:42.361Z,6.97
2019-03-08T02:21:08.661Z,10.30
2019-03-08T02:23:34.809Z,8.20
2019-03-08T02:26:00.970Z,8.10
2019-03-08T02:28:27.171Z,9.90
2019-03-08T02:30:53.423Z,9.70
2019-03-08T02:33:19.572Z,8.70
2019-03-08T02:35:45.866Z,9.83
2019-03-08T02:38:12.055Z,7.70
2019-03-08T02:40:38.342Z,7.27
2019-03-08T02:43:09.364Z,8.23
2019-03-08T02:45:35.498Z,7.10
2019-03-08T02:48:01.657Z,7.97
2019-03-08T02:50:27.847Z,6.00
2019-03-08T02:52:54.009Z,13.77
2019-03-08T02:55:20.163Z,7.60
2019-03-08T02:57:46.565Z,8.60
2019-03-08T03:00:17.677Z,6.73
2019-03-08T03:02:43.959Z,10.20
2019-03-08T03:05:10.150Z,8.27
2019-03-08T03:07:36.422Z,8.67
2019-03-08T03:10:04.586Z,8.57
2019-03-08T03:12:30.770Z,10.63
2019-03-08T03:14:57.032Z,7.10
2019-03-08T03:17:23.300Z,13.10
2019-03-08T03:19:49.593Z,9.57
2019-03-08T03:22:15.745Z,8.60
2019-03-08T03:24:41.901Z,9.97
2019-03-08T03:27:08.097Z,6.30
2019-03-08T03:29:34.248Z,7.77
2019-03-08T03:32:00.602Z,7.87
2019-03-08T03:34:26.792Z,7.53
2019-03-08T03:36:52.960Z,6.80
2019-03-08T03:39:19.204Z,8.13
2019-03-08T03:41:45.464Z,6.73
2019-03-08T03:44:11.626Z,10.63
2019-03-08T03:46:37.779Z,7.07
2019-03-08T03:49:03.971Z,7.13
2019-03-08T03:51:30.853Z,6.63
2019-03-08T03:53:57.108Z,7.17
2019-03-08T03:56:23.293Z,8.07
2019-03-08T03:58:49.452Z,6.07
2019-03-08T04:01:23.582Z,7.87
2019-03-08T04:03:49.773Z,7.90
2019-03-08T04:06:16.441Z,9.17
2019-03-08T04:08:42.605Z,8.53
2019-03-08T04:11:08.800Z,7.70
2019-03-08T04:13:34.956Z,8.27
2019-03-08T04:16:01.112Z,6.93
2019-03-08T04:18:27.304Z,7.43
2019-03-08T04:20:53.467Z,8.10
2019-03-08T04:23:19.613Z,6.97
2019-03-08T04:25:45.913Z,10.90
2019-03-08T04:28:12.074Z,16.67
2019-03-08T04:30:38.223Z,14.57
2019-03-08T04:33:04.414Z,9.07
2019-03-08T04:35:30.712Z,13.77
2019-03-08T04:37:57.233Z,8.33
2019-03-08T04:40:23.454Z,16.17
2019-03-08T04:42:50.476Z,25.77
2019-03-08T04:45:16.631Z,25.73
2019-03-08T04:47:42.824Z,26.33
2019-03-08T04:50:10.583Z,14.70
2019-03-08T04:52:36.762Z,16.17
2019-03-08T04:55:13.753Z,26.93
2019-03-08T04:57:40.008Z,30.33
2019-03-08T05:00:12.096Z,25.60
2019-03-08T05:02:38.553Z,17.17
2019-03-08T05:05:04.983Z,20.07
2019-03-08T05:07:31.279Z,20.83
2019-03-08T05:09:57.468Z,24.37
2019-03-08T05:12:23.619Z,28.37
2019-03-08T05:14:49.782Z,24.87
2019-03-08T05:17:15.964Z,25.27
2019-03-08T05:19:42.222Z,33.43
2019-03-08T05:22:08.428Z,22.63
2019-03-08T05:24:34.630Z,29.07
2019-03-08T05:27:00.767Z,24.13
2019-03-08T05:29:26.925Z,26.50
2019-03-08T05:31:53.110Z,35.57
2019-03-08T05:34:19.662Z,34.83
2019-03-08T05:36:45.823Z,29.60
2019-03-08T05:39:12.024Z,33.60
2019-03-08T05:41:38.284Z,33.73
2019-03-08T05:44:04.564Z,26.37
2019-03-08T05:46:30.748Z,20.77
2019-03-08T05:48:56.898Z,27.90
2019-03-08T05:51:23.054Z,34.33
2019-03-08T05:53:49.441Z,30.27
2019-03-08T05:56:15.602Z,27.87
2019-03-08T05:58:41.761Z,28.93
2019-03-08T06:01:08.291Z,23.73
2019-03-08T06:03:34.439Z,26.57
2019-03-08T06:06:00.596Z,19.77
2019-03-08T06:08:26.801Z,22.97
2019-03-08T06:10:52.970Z,18.73
2019-03-08T06:13:19.322Z,32.47
2019-03-08T06:15:45.512Z,31.57
2019-03-08T06:18:11.676Z,35.10
2019-03-08T06:20:37.937Z,23.60
2019-03-08T06:23:04.709Z,24.87
2019-03-08T06:25:31.122Z,35.57
2019-03-08T06:27:57.279Z,33.20
2019-03-08T06:30:23.577Z,29.67
2019-03-08T06:32:50.133Z,25.33
2019-03-08T06:35:16.298Z,32.27
2019-03-08T06:37:42.470Z,30.60
2019-03-08T06:40:12.744Z,34.73
2019-03-08T06:42:38.902Z,27.13
2019-03-08T06:45:11.238Z,72.83
2019-03-08T06:47:37.504Z,71.13
2019-03-08T06:50:07.077Z,50.90
2019-03-08T06:52:33.525Z,52.80
2019-03-08T06:54:59.681Z,42.30
2019-03-08T06:57:25.846Z,43.07
2019-03-08T06:59:53.936Z,68.73
2019-03-08T07:02:20.809Z,36.30
2019-03-08T07:04:46.964Z,36.40
2019-03-08T07:07:13.598Z,34.57
2019-03-08T07:09:39.755Z,22.27
2019-03-08T07:12:06.013Z,28.13
2019-03-08T07:14:32.205Z,35.87
2019-03-08T07:16:58.375Z,27.87
2019-03-08T07:19:24.627Z,26.17
2019-03-08T07:21:55.635Z,19.17
2019-03-08T07:24:39.240Z,21.03
2019-03-08T07:27:13.345Z,17.53
2019-03-08T07:29:41.399Z,19.07
2019-03-08T07:32:25.735Z,12.17
2019-03-08T07:34:59.465Z,14.10
2019-03-08T07:37:44.143Z,14.33
2019-03-08T07:40:21.318Z,11.67
2019-03-08T07:45:44.282Z,13.77
2019-03-08T07:48:30.828Z,12.97
2019-03-08T07:51:16.835Z,10.97
2019-03-08T07:53:50.494Z,10.13
2019-03-08T07:56:30.266Z,10.10
2019-03-08T07:59:04.164Z,12.10
2019-03-08T08:01:44.081Z,12.87
2019-03-08T08:04:18.017Z,9.20
2019-03-08T08:06:57.699Z,9.83
2019-03-08T08:09:25.788Z,10.20
2019-03-08T08:11:57.792Z,8.03
2019-03-08T08:14:39.256Z,7.80
2019-03-08T08:17:18.000Z,8.67
2019-03-08T08:19:48.896Z,7.73
2019-03-08T08:22:23.695Z,15.63
2019-03-08T08:24:51.783Z,8.13
2019-03-08T08:27:25.377Z,9.50
2019-03-08T08:30:02.220Z,8.73
2019-03-08T08:32:42.024Z,7.07
2019-03-08T08:35:19.236Z,12.30
2019-03-08T08:37:49.840Z,9.10
2019-03-08T08:40:17.895Z,9.37
2019-03-08T08:42:48.756Z,11.07
2019-03-08T08:45:22.908Z,10.90
2019-03-08T08:47:51.244Z,9.67
2019-03-08T08:50:19.296Z,10.33
2019-03-08T08:52:53.369Z,8.47
2019-03-08T08:58:29.758Z,9.43
2019-03-08T09:01:03.633Z,10.83
2019-03-08T09:03:48.488Z,13.77
2019-03-08T09:06:32.825Z,11.10
2019-03-08T09:09:00.924Z,8.73
2019-03-08T09:11:32.008Z,9.80
2019-03-08T09:14:00.073Z,11.80
2019-03-08T09:16:28.158Z,8.10
2019-03-08T09:22:11.022Z,12.13
2019-03-08T09:24:39.084Z,9.37
2019-03-08T09:27:12.941Z,9.43
2019-03-08T09:29:43.775Z,10.40
2019-03-08T09:32:12.150Z,10.93
2019-03-08T09:34:40.461Z,11.87
2019-03-08T09:40:11.210Z,11.70
2019-03-08T09:45:49.290Z,11.27
2019-03-08T09:48:29.017Z,9.83
2019-03-08T09:50:59.637Z,7.63
2019-03-08T09:53:40.046Z,7.87
2019-03-08T09:56:11.906Z,9.03
2019-03-08T09:58:46.620Z,8.93
2019-03-08T10:01:16.824Z,8.40
2019-03-08T10:03:46.470Z,10.63
2019-03-08T10:11:51.826Z,8.90
2019-03-08T10:14:19.896Z,7.93
2019-03-08T10:17:03.074Z,5.87
2019-03-08T10:19:31.144Z,8.90
2019-03-08T10:22:11.325Z,7.20
2019-03-08T10:24:57.244Z,6.43
2019-03-08T10:27:37.827Z,9.00
2019-03-08T10:30:01.010Z,8.73
2019-03-08T10:32:37.518Z,11.27
2019-03-08T10:35:23.727Z,6.30
2019-03-08T10:37:50.680Z,7.41
2019-03-08T10:40:18.742Z,7.67
2019-03-08T10:43:04.788Z,10.20
2019-03-08T10:45:35.711Z,6.07
2019-03-08T10:48:03.771Z,8.03
2019-03-08T10:50:31.862Z,5.87
2019-03-08T10:52:59.938Z,5.67
2019-03-08T10:55:28.007Z,11.47
2019-03-08T11:03:40.662Z,5.87
2019-03-08T11:06:11.733Z,5.03
2019-03-08T11:08:51.906Z,4.93
2019-03-08T11:11:37.915Z,7.30
2019-03-08T11:14:22.586Z,6.60
2019-03-08T11:17:07.050Z,4.50
2019-03-08T11:19:51.428Z,14.93
2019-03-08T11:22:19.504Z,5.50
2019-03-08T11:24:50.101Z,5.43
2019-03-08T11:27:18.219Z,6.43
2019-03-08T11:29:46.300Z,5.73
2019-03-08T11:32:26.402Z,8.07
2019-03-08T11:35:09.801Z,6.03
2019-03-08T11:37:52.695Z,8.17
2019-03-08T11:40:21.159Z,4.33
2019-03-08T11:43:01.108Z,4.60
2019-03-08T11:51:14.694Z,4.97
2019-03-08T11:56:32.501Z,4.27
2019-03-08T11:59:17.210Z,7.73
2019-03-08T12:02:01.559Z,9.27
2019-03-08T12:09:55.914Z,7.23
2019-03-08T12:12:26.500Z,6.73
2019-03-08T12:14:57.943Z,4.67
2019-03-08T12:17:31.832Z,5.30
2019-03-08T12:25:36.284Z,6.83
2019-03-08T12:28:19.156Z,5.27
2019-03-08T12:33:33.730Z,4.03
2019-03-08T12:36:18.208Z,6.13
2019-03-08T12:38:48.794Z,7.27
2019-03-08T12:41:19.370Z,3.80
2019-03-08T12:43:47.462Z,5.27
2019-03-08T12:51:45.453Z,4.50
2019-03-08T12:54:16.689Z,4.47
2019-03-08T12:59:47.529Z,6.53
2019-03-08T13:02:18.214Z,4.83
2019-03-08T13:04:49.006Z,3.43
2019-03-08T13:07:28.844Z,4.50
2019-03-08T13:09:56.909Z,5.20
2019-03-08T13:12:23.077Z,4.10
2019-03-08T13:14:49.271Z,5.73
2019-03-08T13:17:16.029Z,6.30
2019-03-08T13:19:42.195Z,8.13
2019-03-08T13:22:08.392Z,5.93
2019-03-08T13:24:34.563Z,3.93
2019-03-08T13:27:00.724Z,5.80
2019-03-08T13:29:26.908Z,6.37
2019-03-08T13:31:53.080Z,4.17
2019-03-08T13:34:19.333Z,5.23
2019-03-08T13:36:45.755Z,6.13
2019-03-08T13:39:11.928Z,3.70
2019-03-08T13:41:38.092Z,5.70
2019-03-08T13:44:04.276Z,3.97
2019-03-08T13:46:30.444Z,5.07
2019-03-08T13:48:56.604Z,6.13
2019-03-08T13:51:22.803Z,6.17
2019-03-08T13:53:48.964Z,6.93
2019-03-08T13:56:15.139Z,7.10
2019-03-08T13:58:41.335Z,7.33
2019-03-08T14:01:07.499Z,5.67
2019-03-08T14:03:33.660Z,4.33
2019-03-08T14:05:59.844Z,6.20
2019-03-08T14:08:26.007Z,4.80
2019-03-08T14:10:52.171Z,6.07
2019-03-08T14:13:18.586Z,5.47
2019-03-08T14:15:44.738Z,6.20
2019-03-08T14:18:10.895Z,3.40
2019-03-08T14:20:37.094Z,5.67
2019-03-08T14:23:03.257Z,6.57
2019-03-08T14:25:29.420Z,4.37
2019-03-08T14:27:55.606Z,9.03
2019-03-08T14:30:26.981Z,5.20
2019-03-08T14:32:53.309Z,5.77
2019-03-08T14:35:19.904Z,8.13
2019-03-08T14:37:46.059Z,10.80
2019-03-08T14:43:08.682Z,8.83
2019-03-08T14:45:40.405Z,12.47
2019-03-08T14:48:05.968Z,14.67
2019-03-08T14:50:35.452Z,13.50
2019-03-08T14:53:00.983Z,24.40
2019-03-08T14:55:27.342Z,18.33
2019-03-08T14:57:55.361Z,9.97
2019-03-08T15:00:25.346Z,21.27
2019-03-08T15:02:49.967Z,10.47
2019-03-08T15:05:19.214Z,16.57
2019-03-08T15:07:44.319Z,16.00
2019-03-08T15:10:15.521Z,16.67
2019-03-08T15:12:49.049Z,19.23
2019-03-08T15:15:11.783Z,20.23
2019-03-08T15:17:39.063Z,19.63
2019-03-08T15:20:18.595Z,17.00
2019-03-08T15:22:45.261Z,18.33
2019-03-08T15:25:14.156Z,16.60
2019-03-08T15:27:40.533Z,26.13
2019-03-08T15:30:12.855Z,30.67
2019-03-08T15:32:39.113Z,24.30
2019-03-08T15:35:07.717Z,28.97
2019-03-08T15:37:43.656Z,19.07
2019-03-08T15:40:03.264Z,15.87
2019-03-08T15:42:29.568Z,11.40
2019-03-08T15:44:55.721Z,20.57
2019-03-08T15:47:23.821Z,17.47
2019-03-08T15:49:49.967Z,14.47
2019-03-08T15:52:16.327Z,16.67
2019-03-08T15:54:42.866Z,19.83
2019-03-08T15:57:09.075Z,26.07
2019-03-08T15:59:35.260Z,24.80
2019-03-08T16:02:01.943Z,24.80
2019-03-08T16:04:29.603Z,28.53
2019-03-08T16:06:55.880Z,24.90
2019-03-08T16:09:22.073Z,30.10
2019-03-08T16:11:48.272Z,28.67
2019-03-08T16:14:14.421Z,36.80
2019-03-08T16:16:40.579Z,26.00
2019-03-08T16:19:06.781Z,20.00
2019-03-08T16:21:33.044Z,13.33
2019-03-08T16:23:59.505Z,13.43
2019-03-08T16:26:26.412Z,14.83
2019-03-08T16:28:52.766Z,19.73
2019-03-08T16:31:30.499Z,14.87
2019-03-08T16:34:01.389Z,22.63
2019-03-08T16:39:09.370Z,16.83
2019-03-08T16:41:53.827Z,19.77
2019-03-08T16:44:27.583Z,15.43
2019-03-08T16:46:55.582Z,18.57
2019-03-08T16:49:23.820Z,12.97
2019-03-08T16:51:51.886Z,20.60
2019-03-08T16:54:22.519Z,20.93
2019-03-08T16:59:34.153Z,20.07
2019-03-08T17:02:06.273Z,14.17
2019-03-08T17:04:34.370Z,13.57
2019-03-08T17:07:19.322Z,13.23
2019-03-08T17:09:47.419Z,11.13
2019-03-08T17:12:15.481Z,13.10
2019-03-08T17:15:00.342Z,12.60
2019-03-08T17:17:43.581Z,11.97
2019-03-08T17:20:11.681Z,10.90
2019-03-08T17:22:40.621Z,13.47
2019-03-08T17:25:09.101Z,17.97
2019-03-08T17:27:40.022Z,12.50
2019-03-08T17:30:11.703Z,17.43
2019-03-08T17:32:45.633Z,15.87
2019-03-08T17:35:13.699Z,15.03
2019-03-08T17:37:50.494Z,19.80
2019-03-08T17:40:18.564Z,13.73
2019-03-08T17:42:46.630Z,10.27
2019-03-08T17:45:32.853Z,13.60
2019-03-08T17:48:12.799Z,16.93
2019-03-08T17:50:43.660Z,12.97
2019-03-08T17:53:11.718Z,14.37
2019-03-08T17:55:45.750Z,12.77
2019-03-08T18:01:01.100Z,12.03
2019-03-08T18:03:34.913Z,17.13
2019-03-08T18:06:03.024Z,13.83
2019-03-08T18:08:31.088Z,17.17
2019-03-08T18:10:59.146Z,11.40
2019-03-08T18:13:27.240Z,16.73
2019-03-08T18:16:04.206Z,10.43
2019-03-08T18:18:48.830Z,13.30
2019-03-08T18:21:16.890Z,14.00
2019-03-08T18:23:59.827Z,15.33
2019-03-08T18:26:27.882Z,14.93
2019-03-08T18:28:55.946Z,13.17
2019-03-08T18:31:24.028Z,11.03
2019-03-08T18:33:52.091Z,13.60
2019-03-08T18:36:20.183Z,11.67
2019-03-08T18:39:06.175Z,13.40
2019-03-08T18:41:34.248Z,14.53
2019-03-08T18:44:02.298Z,14.60
2019-03-08T18:46:36.093Z,16.77
2019-03-08T18:49:20.470Z,15.07
2019-03-08T18:51:48.558Z,15.20
2019-03-08T18:54:25.650Z,20.83
2019-03-08T18:56:57.184Z,23.87
2019-03-08T18:59:30.783Z,13.20
2019-03-08T19:02:13.901Z,18.43
2019-03-08T19:04:44.743Z,15.40
2019-03-08T19:07:18.619Z,22.67
2019-03-08T19:09:58.475Z,16.07
2019-03-08T19:12:26.579Z,11.23
2019-03-08T19:14:54.649Z,12.03
2019-03-08T19:17:25.472Z,12.20
2019-03-08T19:19:53.580Z,13.30
2019-03-08T19:22:26.488Z,13.00
2019-03-08T19:25:07.925Z,16.30
2019-03-08T19:27:44.772Z,10.70
2019-03-08T19:30:23.210Z,10.87
2019-03-08T19:35:50.641Z,12.90
2019-03-08T19:38:27.443Z,17.90
2019-03-08T19:41:12.224Z,11.13
2019-03-08T19:43:46.380Z,13.40
2019-03-08T19:46:14.441Z,14.83
2019-03-08T19:48:57.603Z,12.03
2019-03-08T19:51:37.412Z,13.53
2019-03-08T19:54:11.323Z,12.97
2019-03-08T19:56:44.937Z,13.23
2019-03-08T19:59:21.884Z,13.97
2019-03-08T20:01:49.952Z,14.67
2019-03-08T20:04:18.016Z,13.47
2019-03-08T20:07:02.933Z,13.30
2019-03-08T20:09:30.997Z,13.70
2019-03-08T20:12:01.828Z,13.33
2019-03-08T20:14:44.740Z,14.00
2019-03-08T20:17:31.140Z,9.93
2019-03-08T20:20:17.258Z,12.40
2019-03-08T20:23:01.665Z,13.60
2019-03-08T20:25:46.125Z,12.50
2019-03-08T20:28:28.954Z,13.30
2019-03-08T20:31:09.187Z,13.00
2019-03-08T20:33:53.833Z,11.13
2019-03-08T20:36:28.261Z,16.53
2019-03-08T20:38:56.326Z,15.90
2019-03-08T20:41:24.398Z,11.40
2019-03-08T20:43:55.016Z,14.87
2019-03-08T20:46:28.855Z,12.63
2019-03-08T20:48:55.117Z,15.97
2019-03-08T20:51:21.313Z,11.20
2019-03-08T20:53:47.465Z,13.97
2019-03-08T20:56:13.624Z,15.53
2019-03-08T20:58:39.818Z,11.00
2019-03-08T21:01:05.970Z,13.13
2019-03-08T21:03:32.152Z,10.70
2019-03-08T21:05:58.456Z,10.40
2019-03-08T21:08:24.595Z,12.93
2019-03-08T21:10:50.872Z,15.17
2019-03-08T21:13:17.174Z,13.53
2019-03-08T21:15:43.330Z,12.63
2019-03-08T21:18:09.498Z,13.37
2019-03-08T21:20:35.705Z,13.57
2019-03-08T21:23:01.964Z,12.77
2019-03-08T21:25:28.115Z,11.33
2019-03-08T21:27:54.315Z,11.03
2019-03-08T21:30:20.469Z,12.80
2019-03-08T21:32:46.633Z,14.77
2019-03-08T21:35:12.875Z,13.37
2019-03-08T21:37:39.031Z,14.50
2019-03-08T21:40:07.284Z,14.00
2019-03-08T21:42:33.472Z,13.07
2019-03-08T21:44:59.631Z,12.73
2019-03-08T21:47:25.797Z,12.77
2019-03-08T21:49:51.981Z,13.53
2019-03-08T21:52:18.146Z,12.60
2019-03-08T21:54:44.511Z,16.60
2019-03-08T21:57:10.767Z,12.40
2019-03-08T21:59:36.917Z,12.33
2019-03-08T22:02:04.086Z,13.50
2019-03-08T22:04:32.323Z,12.90
2019-03-08T22:06:58.483Z,16.47
2019-03-08T22:09:26.552Z,21.57
2019-03-08T22:11:52.857Z,19.90
2019-03-08T22:14:19.126Z,25.00
2019-03-08T22:16:45.276Z,25.37
2019-03-08T22:19:11.473Z,19.43
2019-03-08T22:21:37.636Z,24.40
2019-03-08T22:24:12.847Z,17.73
2019-03-08T22:26:31.996Z,19.17
2019-03-08T22:28:58.254Z,22.30
2019-03-08T22:31:24.406Z,21.87
2019-03-08T22:33:50.705Z,22.60
2019-03-08T22:36:16.855Z,20.60
2019-03-08T22:38:43.121Z,19.37
2019-03-08T22:41:09.315Z,28.10
2019-03-08T22:43:35.471Z,16.13
2019-03-08T22:46:01.629Z,17.10
2019-03-08T22:48:27.828Z,18.97
2019-03-08T22:50:53.991Z,13.53
2019-03-08T22:53:20.158Z,17.80
2019-03-08T22:55:46.358Z,17.07
2019-03-08T22:58:12.507Z,22.60
2019-03-08T23:00:58.550Z,19.30
2019-03-08T23:03:24.843Z,19.13
2019-03-08T23:05:51.167Z,18.83
2019-03-08T23:08:17.358Z,12.17
2019-03-08T23:10:44.123Z,14.07
2019-03-08T23:13:10.386Z,11.43
2019-03-08T23:15:36.593Z,17.40
2019-03-08T23:18:02.765Z,13.63
2019-03-08T23:20:28.920Z,16.47
2019-03-08T23:22:55.115Z,13.73
2019-03-08T23:25:21.281Z,18.80
2019-03-08T23:27:49.346Z,16.80
2019-03-08T23:30:17.434Z,29.87
2019-03-08T23:32:44.803Z,33.87
2019-03-08T23:35:11.066Z,37.73
2019-03-08T23:37:37.272Z,35.87
2019-03-08T23:40:05.034Z,26.73
2019-03-08T23:42:31.208Z,25.20
2019-03-08T23:44:57.407Z,24.80
2019-03-08T23:47:23.687Z,25.73
2019-03-08T23:49:49.834Z,17.47
2019-03-08T23:52:16.023Z,27.33
2019-03-08T23:54:42.286Z,22.40
2019-03-08T23:57:08.739Z,20.83
2019-03-08T23:59:34.928Z,21.00
